createdAt,value
2022-08-05T00:02:22.825Z,50.31
2022-08-05T00:04:55.060Z,50.22
2022-08-05T00:07:58.617Z,50.23
2022-08-05T00:10:12.140Z,50.33
2022-08-05T00:12:56.606Z,50.40
2022-08-05T00:15:56.099Z,50.38
2022-08-05T00:18:21.296Z,50.59
2022-08-05T00:20:49.999Z,50.42
2022-08-05T00:23:44.199Z,50.44
2022-08-05T00:26:07.211Z,50.77
2022-08-05T00:28:35.942Z,50.83
2022-08-05T00:31:04.737Z,50.82
2022-08-05T00:34:53.694Z,50.82
2022-08-05T00:37:10.377Z,50.91
2022-08-05T00:39:13.720Z,51.31
2022-08-05T00:41:55.278Z,51.25
2022-08-05T00:44:30.537Z,51.31
2022-08-05T00:47:02.165Z,51.33
2022-08-05T00:49:32.554Z,51.17
2022-08-05T00:52:12.134Z,51.26
2022-08-05T00:54:40.162Z,51.54
2022-08-05T00:57:12.283Z,51.45
2022-08-05T00:59:44.518Z,51.47
2022-08-05T01:02:12.471Z,51.74
2022-08-05T01:04:44.439Z,51.83
2022-08-05T01:07:31.759Z,51.93
2022-08-05T01:10:00.539Z,52.19
2022-08-05T01:12:29.695Z,52.29
2022-08-05T01:15:05.331Z,52.38
2022-08-05T01:17:43.863Z,52.32
2022-08-05T01:20:24.678Z,52.29
2022-08-05T01:23:14.430Z,52.41
2022-08-05T01:26:00.454Z,52.60
2022-08-05T01:28:33.287Z,52.66
2022-08-05T01:31:09.129Z,53.00
2022-08-05T01:33:43.359Z,53.07
2022-08-05T01:36:18.728Z,53.07
2022-08-05T01:38:49.752Z,53.07
2022-08-05T01:41:25.787Z,53.27
2022-08-05T01:43:54.816Z,53.30
2022-08-05T01:46:41.942Z,53.37
2022-08-05T01:49:23.594Z,53.39
2022-08-05T01:51:56.736Z,53.51
2022-08-05T01:54:31.275Z,53.62
2022-08-05T01:58:11.160Z,53.61
2022-08-05T01:59:53.660Z,53.80
2022-08-05T02:02:28.455Z,53.95
2022-08-05T02:05:00.782Z,54.00
2022-08-05T02:07:30.235Z,53.93
2022-08-05T02:09:58.882Z,54.12
2022-08-05T02:12:43.274Z,54.15
2022-08-05T02:15:23.383Z,54.20
2022-08-05T02:18:28.535Z,54.66
2022-08-05T02:20:47.261Z,54.63
2022-08-05T02:23:17.153Z,54.59
2022-08-05T02:25:49.698Z,54.74
2022-08-05T02:28:29.104Z,54.97
2022-08-05T02:31:02.098Z,54.94
2022-08-05T02:33:35.916Z,54.95
2022-08-05T02:36:09.979Z,55.12
2022-08-05T02:38:45.038Z,55.06
2022-08-05T02:41:23.406Z,55.24
2022-08-05T02:44:06.054Z,55.42
2022-08-05T02:46:53.218Z,55.38
2022-08-05T02:49:35.868Z,55.46
2022-08-05T02:52:09.066Z,55.58
2022-08-05T02:54:41.629Z,55.59
2022-08-05T02:58:11.320Z,55.75
2022-08-05T03:00:04.157Z,55.73
2022-08-05T03:02:36.371Z,55.84
2022-08-05T03:05:07.370Z,55.92
2022-08-05T03:08:01.183Z,55.99
2022-08-05T03:10:25.277Z,56.16
2022-08-05T03:12:55.101Z,56.28
2022-08-05T03:15:24.444Z,56.31
2022-08-05T03:17:55.516Z,56.33
2022-08-05T03:20:24.472Z,56.40
2022-08-05T03:22:53.070Z,56.50
2022-08-05T03:26:03.718Z,56.57
2022-08-05T03:28:14.488Z,56.77
2022-08-05T03:30:48.109Z,56.77
2022-08-05T03:33:19.646Z,56.79
2022-08-05T03:35:48.479Z,56.88
2022-08-05T03:38:17.981Z,57.01
2022-08-05T03:41:08.152Z,57.05
2022-08-05T03:44:08.930Z,57.24
2022-08-05T03:46:29.577Z,57.37
2022-08-05T03:48:59.624Z,57.43
2022-08-05T03:52:37.117Z,57.45
2022-08-05T03:55:54.143Z,57.52
2022-08-05T03:57:18.564Z,57.59
2022-08-05T03:59:54.529Z,57.55
2022-08-05T04:02:37.536Z,57.43
2022-08-05T04:05:10.254Z,57.61
2022-08-05T04:07:53.073Z,57.51
2022-08-05T04:10:32.070Z,57.62
2022-08-05T04:13:07.717Z,57.69
2022-08-05T04:15:36.450Z,57.85
2022-08-05T04:18:06.762Z,57.68
2022-08-05T04:20:36.125Z,57.81
2022-08-05T04:23:04.303Z,57.92
2022-08-05T04:25:57.829Z,58.03
2022-08-05T04:28:21.167Z,57.98
2022-08-05T04:31:01.155Z,57.86
2022-08-05T04:33:54.510Z,57.81
2022-08-05T04:36:45.295Z,57.82
2022-08-05T04:39:07.637Z,57.82
2022-08-05T04:41:37.765Z,57.84
2022-08-05T04:44:09.274Z,57.76
2022-08-05T04:46:38.874Z,57.73
2022-08-05T04:49:12.391Z,57.77
2022-08-05T04:51:44.132Z,57.79
2022-08-05T04:54:12.005Z,57.79
2022-08-05T04:56:40.305Z,57.77
2022-08-05T04:59:21.696Z,57.85
2022-08-05T05:02:07.230Z,57.79
2022-08-05T05:04:43.968Z,57.62
2022-08-05T05:07:17.263Z,57.47
2022-08-05T05:09:45.829Z,57.35
2022-08-05T05:12:13.551Z,57.35
2022-08-05T05:14:50.853Z,57.26
2022-08-05T05:17:23.812Z,57.24
2022-08-05T05:19:56.558Z,57.15
2022-08-05T05:22:26.356Z,57.19
2022-08-05T05:24:58.577Z,57.14
2022-08-05T05:27:44.166Z,57.09
2022-08-05T05:30:29.497Z,57.11
2022-08-05T05:33:01.275Z,57.02
2022-08-05T05:35:37.817Z,56.95
2022-08-05T05:38:09.481Z,56.85
2022-08-05T05:40:49.837Z,56.82
2022-08-05T05:43:57.193Z,56.81
2022-08-05T05:46:17.744Z,56.75
2022-08-05T05:48:48.024Z,56.48
2022-08-05T05:51:21.478Z,56.36
2022-08-05T05:53:58.234Z,56.18
2022-08-05T05:56:37.038Z,56.23
2022-08-05T05:59:07.012Z,56.22
2022-08-05T06:01:39.796Z,55.95
2022-08-05T06:04:12.754Z,55.77
2022-08-05T06:06:43.318Z,55.67
2022-08-05T06:09:16.991Z,55.78
2022-08-05T06:12:02.451Z,55.56
2022-08-05T06:14:33.426Z,55.40
2022-08-05T06:17:22.372Z,55.05
2022-08-05T06:19:56.688Z,54.90
2022-08-05T06:22:33.512Z,54.70
2022-08-05T06:25:25.028Z,54.54
2022-08-05T06:28:09.029Z,54.40
2022-08-05T06:34:06.836Z,54.36
2022-08-05T06:36:25.831Z,54.30
2022-08-05T06:38:55.116Z,54.28
2022-08-05T06:41:24.604Z,53.96
2022-08-05T06:44:00.158Z,53.75
2022-08-05T06:46:51.035Z,53.68
2022-08-05T06:49:59.818Z,53.53
2022-08-05T06:52:36.746Z,53.46
2022-08-05T06:55:09.533Z,53.39
2022-08-05T06:58:02.964Z,53.32
2022-08-05T07:00:26.700Z,53.31
2022-08-05T07:02:57.307Z,53.09
2022-08-05T07:05:37.267Z,52.85
2022-08-05T07:08:06.984Z,52.69
2022-08-05T07:10:39.735Z,52.66
2022-08-05T07:13:57.932Z,51.98
2022-08-05T07:17:58.199Z,51.56
2022-08-05T07:22:22.134Z,51.15
2022-08-05T07:24:57.882Z,51.05
2022-08-05T07:27:27.386Z,50.85
2022-08-05T07:30:23.946Z,50.51
2022-08-05T07:32:45.082Z,50.52
2022-08-05T07:35:55.759Z,50.09
2022-08-05T07:38:12.256Z,50.12
2022-08-05T07:40:44.487Z,50.01
2022-08-05T07:43:20.168Z,49.73
2022-08-05T07:45:57.974Z,49.75
2022-08-05T07:49:01.678Z,49.72
2022-08-05T07:51:23.731Z,49.54
2022-08-05T07:54:02.684Z,49.26
2022-08-05T07:57:02.420Z,48.83
2022-08-05T07:59:23.282Z,48.72
2022-08-05T08:02:06.995Z,48.63
2022-08-05T08:04:43.043Z,48.50
2022-08-05T08:07:13.319Z,48.36
2022-08-05T08:09:41.168Z,48.14
2022-08-05T08:12:27.521Z,48.31
2022-08-05T08:14:57.514Z,47.96
2022-08-05T08:17:30.503Z,47.60
2022-08-05T08:20:21.653Z,47.42
2022-08-05T08:22:52.067Z,47.02
2022-08-05T08:25:26.449Z,46.91
2022-08-05T08:27:55.105Z,47.00
2022-08-05T08:30:30.008Z,46.40
2022-08-05T08:33:08.371Z,46.38
2022-08-05T08:35:41.528Z,46.07
2022-08-05T08:38:35.394Z,45.30
2022-08-05T08:41:07.498Z,45.11
2022-08-05T08:45:22.070Z,44.79
2022-08-05T08:46:27.265Z,44.46
2022-08-05T08:49:04.137Z,44.42
2022-08-05T08:52:03.098Z,44.01
2022-08-05T08:54:28.154Z,43.51
2022-08-05T08:56:56.596Z,43.46
2022-08-05T08:59:27.686Z,43.32
2022-08-05T09:02:08.492Z,43.19
2022-08-05T09:04:37.350Z,42.70
2022-08-05T09:07:28.770Z,42.57
2022-08-05T09:10:08.418Z,42.30
2022-08-05T09:12:37.817Z,42.03
2022-08-05T09:15:07.462Z,41.68
2022-08-05T09:17:40.639Z,41.97
2022-08-05T09:20:12.158Z,41.55
2022-08-05T09:23:05.449Z,41.28
2022-08-05T09:26:02.518Z,41.32
2022-08-05T09:28:31.615Z,40.73
2022-08-05T09:31:43.710Z,40.91
2022-08-05T09:33:54.048Z,40.49
2022-08-05T09:36:21.953Z,40.31
2022-08-05T09:39:00.082Z,40.30
2022-08-05T09:41:32.766Z,39.96
2022-08-05T09:44:06.138Z,40.11
2022-08-05T09:46:35.054Z,40.24
2022-08-05T09:49:18.575Z,39.72
2022-08-05T09:51:48.846Z,39.00
2022-08-05T09:54:29.627Z,38.80
2022-08-05T09:57:01.354Z,38.65
2022-08-05T09:59:29.681Z,38.21
2022-08-05T10:02:02.981Z,38.00
2022-08-05T10:04:39.500Z,38.49
2022-08-05T10:07:19.659Z,38.29
2022-08-05T10:10:14.662Z,38.50
2022-08-05T10:12:49.834Z,38.22
2022-08-05T10:15:23.478Z,37.84
2022-08-05T10:18:12.539Z,37.25
2022-08-05T10:20:43.095Z,37.39
2022-08-05T10:23:34.252Z,36.87
2022-08-05T10:26:04.997Z,37.01
2022-08-05T10:28:36.552Z,37.10
2022-08-05T10:32:48.095Z,36.93
2022-08-05T10:33:54.711Z,36.96
2022-08-05T10:36:23.759Z,36.86
2022-08-05T10:39:00.397Z,36.47
2022-08-05T10:41:44.863Z,36.09
2022-08-05T10:44:18.738Z,36.08
2022-08-05T10:46:50.875Z,36.04
2022-08-05T10:49:26.789Z,35.44
2022-08-05T10:52:02.513Z,35.35
2022-08-05T10:55:04.923Z,35.51
2022-08-05T10:57:34.250Z,35.60
2022-08-05T11:00:18.635Z,35.76
2022-08-05T11:03:23.573Z,35.13
2022-08-05T11:06:15.812Z,35.29
2022-08-05T11:09:31.960Z,35.35
2022-08-05T11:12:43.709Z,34.36
2022-08-05T11:15:59.338Z,34.21
2022-08-05T11:18:29.953Z,34.31
2022-08-05T11:20:57.795Z,34.00
2022-08-05T11:23:33.626Z,34.18
2022-08-05T11:26:28.360Z,33.88
2022-08-05T11:29:12.271Z,33.36
2022-08-05T11:31:57.877Z,33.27
2022-08-05T11:34:39.969Z,33.14
2022-08-05T11:38:37.400Z,33.37
2022-08-05T11:41:13.956Z,32.95
2022-08-05T11:44:07.307Z,33.18
2022-08-05T11:46:38.035Z,32.50
2022-08-05T11:49:25.611Z,32.56
2022-08-05T11:51:53.685Z,32.65
2022-08-05T11:54:33.971Z,32.39
2022-08-05T11:57:08.643Z,32.44
2022-08-05T11:59:52.715Z,32.06
2022-08-05T12:02:31.976Z,32.05
2022-08-05T12:05:07.405Z,32.35
2022-08-05T12:08:08.963Z,32.06
2022-08-05T12:10:43.602Z,32.34
2022-08-05T12:13:17.262Z,31.78
2022-08-05T12:15:49.998Z,30.76
2022-08-05T12:18:19.080Z,30.21
2022-08-05T12:20:48.799Z,30.24
2022-08-05T12:23:17.000Z,30.12
2022-08-05T12:25:53.371Z,30.29
2022-08-05T12:28:35.166Z,30.39
2022-08-05T12:31:05.306Z,29.92
2022-08-05T12:33:36.729Z,30.02
2022-08-05T12:36:09.300Z,30.00
2022-08-05T12:38:39.690Z,29.47
2022-08-05T12:41:13.970Z,28.70
2022-08-05T12:43:56.053Z,28.50
2022-08-05T12:46:29.037Z,28.84
2022-08-05T12:49:13.024Z,28.51
2022-08-05T12:52:12.789Z,28.26
2022-08-05T12:54:35.903Z,28.06
2022-08-05T12:57:10.243Z,28.49
2022-08-05T13:01:56.868Z,28.59
2022-08-05T13:02:37.310Z,28.76
2022-08-05T13:05:11.093Z,28.71
2022-08-05T13:08:00.162Z,29.06
2022-08-05T13:10:33.701Z,28.49
2022-08-05T13:13:06.556Z,28.43
2022-08-05T13:15:50.299Z,28.62
2022-08-05T13:18:20.198Z,28.21
2022-08-05T13:20:49.316Z,28.15
2022-08-05T13:23:22.417Z,28.52
2022-08-05T13:25:52.412Z,28.48
2022-08-05T13:28:27.521Z,28.22
2022-08-05T13:30:55.049Z,27.60
2022-08-05T13:34:23.189Z,26.98
2022-08-05T13:36:14.510Z,26.98
2022-08-05T13:38:43.237Z,27.08
2022-08-05T13:41:13.524Z,27.57
2022-08-05T13:43:55.195Z,27.74
2022-08-05T13:46:37.989Z,27.47
2022-08-05T13:49:12.195Z,27.59
2022-08-05T13:51:46.220Z,27.36
2022-08-05T13:54:16.068Z,26.93
2022-08-05T13:56:45.163Z,26.78
2022-08-05T13:59:21.370Z,26.60
2022-08-05T14:01:58.242Z,26.94
2022-08-05T14:04:50.021Z,26.96
2022-08-05T14:07:26.362Z,26.52
2022-08-05T14:10:12.386Z,26.70
2022-08-05T14:12:43.001Z,26.17
2022-08-05T14:16:07.938Z,26.25
2022-08-05T14:18:05.479Z,25.97
2022-08-05T14:20:34.035Z,26.16
2022-08-05T14:23:01.613Z,25.73
2022-08-05T14:25:30.430Z,25.84
2022-08-05T14:27:58.408Z,25.61
2022-08-05T14:30:27.860Z,25.41
2022-08-05T14:32:56.738Z,25.24
2022-08-05T14:35:36.956Z,24.66
2022-08-05T14:38:32.405Z,24.21
2022-08-05T14:41:01.501Z,23.87
2022-08-05T14:43:57.516Z,23.70
2022-08-05T14:46:23.047Z,23.83
2022-08-05T14:48:57.003Z,23.24
2022-08-05T14:51:25.154Z,22.22
2022-08-05T14:54:00.570Z,21.95
2022-08-05T14:56:46.941Z,21.05
2022-08-05T14:59:15.186Z,20.62
2022-08-05T15:01:48.115Z,20.13
2022-08-05T15:04:17.323Z,20.02
2022-08-05T15:06:49.458Z,19.49
2022-08-05T15:09:50.566Z,19.67
2022-08-05T15:12:06.954Z,19.02
2022-08-05T15:14:48.292Z,18.97
2022-08-05T15:17:46.222Z,18.27
2022-08-05T15:20:18.605Z,17.77
2022-08-05T15:22:54.004Z,17.44
2022-08-05T15:25:23.592Z,16.92
2022-08-05T15:28:14.566Z,16.72
2022-08-05T15:30:43.751Z,16.31
2022-08-05T15:34:04.375Z,15.72
2022-08-05T15:36:03.622Z,15.54
2022-08-05T15:38:34.062Z,15.14
2022-08-05T15:41:22.672Z,14.58
2022-08-05T15:43:54.569Z,14.32
2022-08-05T15:46:23.998Z,14.59
2022-08-05T15:49:00.802Z,15.80
2022-08-05T15:52:04.479Z,16.59
2022-08-05T15:54:17.709Z,17.13
2022-08-05T15:56:45.300Z,18.15
2022-08-05T15:59:21.617Z,18.86
2022-08-05T16:01:53.323Z,18.93
2022-08-05T16:04:25.489Z,20.18
2022-08-05T16:06:55.587Z,21.49
2022-08-05T16:09:24.477Z,22.73
2022-08-05T16:11:53.776Z,23.67
2022-08-05T16:14:21.852Z,24.66
2022-08-05T16:16:50.268Z,25.57
2022-08-05T16:19:19.169Z,25.40
2022-08-05T16:22:06.908Z,25.73
2022-08-05T16:24:41.567Z,26.46
2022-08-05T16:27:18.721Z,25.94
2022-08-05T16:29:50.350Z,26.48
2022-08-05T16:32:28.282Z,25.69
2022-08-05T16:34:57.410Z,26.26
2022-08-05T16:38:15.677Z,26.37
2022-08-05T16:40:26.643Z,26.26
2022-08-05T16:42:57.231Z,27.80
2022-08-05T16:46:04.941Z,29.19
2022-08-05T16:48:25.264Z,28.33
2022-08-05T16:50:54.294Z,29.00
2022-08-05T16:53:31.821Z,29.41
2022-08-05T16:56:00.451Z,30.20
2022-08-05T16:58:28.060Z,31.04
2022-08-05T17:00:55.613Z,31.63
2022-08-05T17:03:23.184Z,32.45
2022-08-05T17:05:54.026Z,32.95
2022-08-05T17:08:36.473Z,33.25
2022-08-05T17:11:17.164Z,33.92
2022-08-05T17:13:45.378Z,34.34
2022-08-05T17:16:32.656Z,34.66
2022-08-05T17:19:00.892Z,35.03
2022-08-05T17:21:36.151Z,36.06
2022-08-05T17:24:19.368Z,37.02
2022-08-05T17:26:51.758Z,37.15
2022-08-05T17:29:22.508Z,35.92
2022-08-05T17:32:00.519Z,36.97
2022-08-05T17:34:29.568Z,37.52
2022-08-05T17:36:59.603Z,38.10
2022-08-05T17:39:33.218Z,38.23
2022-08-05T17:42:28.553Z,38.11
2022-08-05T17:44:51.057Z,38.62
2022-08-05T17:47:22.248Z,38.81
2022-08-05T17:50:00.350Z,39.10
2022-08-05T17:52:32.456Z,39.10
2022-08-05T17:55:02.968Z,39.47
2022-08-05T17:57:30.813Z,39.47
2022-08-05T18:00:03.611Z,39.84
2022-08-05T18:02:33.347Z,39.78
2022-08-05T18:05:02.793Z,40.40
2022-08-05T18:07:41.543Z,41.75
2022-08-05T18:10:10.977Z,42.18
2022-08-05T18:12:39.345Z,41.66
2022-08-05T18:15:09.158Z,41.84
2022-08-05T18:17:59.600Z,42.16
2022-08-05T18:20:29.279Z,41.23
2022-08-05T18:23:12.025Z,40.37
2022-08-05T18:25:44.757Z,39.87
2022-08-05T18:28:16.643Z,39.70
2022-08-05T18:30:45.497Z,39.39
2022-08-05T18:33:18.431Z,39.29
2022-08-05T18:36:03.376Z,39.24
2022-08-05T18:38:35.016Z,39.23
2022-08-05T18:41:56.091Z,39.04
2022-08-05T18:43:51.578Z,39.22
2022-08-05T18:46:19.834Z,39.37
2022-08-05T18:48:51.973Z,39.55
2022-08-05T18:52:05.669Z,39.89
2022-08-05T18:54:28.348Z,40.30
2022-08-05T18:57:01.091Z,40.54
2022-08-05T18:59:43.382Z,40.73
2022-08-05T19:02:27.769Z,41.01
2022-08-05T19:05:02.395Z,41.20
2022-08-05T19:07:47.407Z,41.44
2022-08-05T19:10:18.787Z,41.70
2022-08-05T19:12:54.554Z,41.70
2022-08-05T19:15:57.844Z,41.73
2022-08-05T19:18:20.981Z,42.19
2022-08-05T19:20:51.426Z,42.40
2022-08-05T19:24:03.292Z,42.77
2022-08-05T19:26:09.159Z,42.79
2022-08-05T19:28:41.553Z,43.07
2022-08-05T19:31:13.466Z,42.97
2022-08-05T19:33:48.446Z,43.27
2022-08-05T19:36:29.533Z,43.22
2022-08-05T19:39:09.870Z,43.35
2022-08-05T19:42:07.170Z,43.72
2022-08-05T19:44:29.239Z,43.67
2022-08-05T19:46:57.914Z,43.83
2022-08-05T19:49:25.654Z,43.47
2022-08-05T19:52:09.179Z,43.24
2022-08-05T19:54:44.800Z,43.54
2022-08-05T19:57:13.120Z,43.25
2022-08-05T20:00:00.784Z,43.30
2022-08-05T20:02:31.974Z,44.00
2022-08-05T20:05:00.189Z,44.15
2022-08-05T20:07:46.931Z,44.26
2022-08-05T20:10:19.366Z,44.64
2022-08-05T20:12:50.472Z,44.97
2022-08-05T20:15:48.589Z,45.26
2022-08-05T20:18:32.735Z,45.37
2022-08-05T20:20:59.991Z,45.62
2022-08-05T20:23:40.147Z,45.78
2022-08-05T20:26:20.660Z,46.00
2022-08-05T20:28:52.701Z,46.06
2022-08-05T20:31:28.804Z,46.33
2022-08-05T20:34:12.875Z,46.58
2022-08-05T20:36:43.284Z,46.74
2022-08-05T20:39:12.897Z,46.88
2022-08-05T20:41:43.971Z,47.30
2022-08-05T20:44:29.922Z,47.03
2022-08-05T20:47:03.281Z,47.49
2022-08-05T20:49:37.798Z,47.84
2022-08-05T20:52:08.061Z,48.10
2022-08-05T20:54:58.943Z,48.57
2022-08-05T20:57:24.870Z,48.79
2022-08-05T21:00:35.098Z,48.98
2022-08-05T21:03:06.182Z,49.28
2022-08-05T21:05:47.436Z,49.16
2022-08-05T21:08:20.904Z,49.27
2022-08-05T21:10:55.325Z,49.50
2022-08-05T21:13:56.489Z,49.24
2022-08-05T21:16:14.885Z,49.42
2022-08-05T21:18:45.230Z,49.44
2022-08-05T21:21:12.988Z,49.19
2022-08-05T21:23:41.122Z,49.31
2022-08-05T21:26:14.410Z,49.32
2022-08-05T21:28:50.528Z,49.28
2022-08-05T21:31:19.007Z,49.49
2022-08-05T21:33:47.687Z,49.94
2022-08-05T21:36:27.717Z,50.52
2022-08-05T21:38:58.475Z,51.07
2022-08-05T21:41:32.968Z,51.73
2022-08-05T21:44:04.227Z,51.83
2022-08-05T21:46:32.404Z,52.08
2022-08-05T21:49:04.604Z,52.04
2022-08-05T21:52:22.618Z,52.55
2022-08-05T21:54:27.797Z,53.46
2022-08-05T21:57:29.602Z,54.19
2022-08-05T22:00:05.969Z,54.64
2022-08-05T22:02:35.335Z,56.48
2022-08-05T22:05:04.428Z,58.19
2022-08-05T22:07:40.200Z,59.68
2022-08-05T22:10:27.029Z,60.71
2022-08-05T22:12:57.207Z,60.76
2022-08-05T22:16:01.563Z,61.44
2022-08-05T22:18:15.420Z,61.31
2022-08-05T22:20:46.655Z,61.61
2022-08-05T22:24:01.900Z,61.75
2022-08-05T22:26:49.515Z,61.68
2022-08-05T22:29:26.470Z,61.64
2022-08-05T22:32:02.913Z,61.97
2022-08-05T22:34:32.485Z,61.85
2022-08-05T22:37:03.907Z,61.66
2022-08-05T22:39:34.446Z,61.40
2022-08-05T22:42:10.076Z,61.40
2022-08-05T22:44:40.299Z,61.40
2022-08-05T22:47:11.229Z,62.33
2022-08-05T22:50:19.055Z,62.73
2022-08-05T22:52:32.303Z,63.08
2022-08-05T22:55:02.279Z,63.52
2022-08-05T22:57:36.373Z,63.82
2022-08-05T23:00:07.702Z,64.16
2022-08-05T23:02:40.053Z,64.95
2022-08-05T23:05:15.058Z,65.25
2022-08-05T23:07:48.204Z,65.33
2022-08-05T23:10:20.167Z,65.45
2022-08-05T23:12:51.490Z,65.90
2022-08-05T23:15:27.147Z,65.56
2022-08-05T23:18:00.850Z,65.83
2022-08-05T23:20:32.602Z,65.67
2022-08-05T23:23:03.365Z,65.35
2022-08-05T23:25:53.203Z,65.27
2022-08-05T23:28:29.227Z,65.02
2022-08-05T23:31:16.524Z,65.11
2022-08-05T23:34:04.477Z,64.94
2022-08-05T23:36:38.755Z,64.88
2022-08-05T23:39:10.022Z,64.83
2022-08-05T23:41:48.450Z,64.81
2022-08-05T23:44:17.511Z,64.89
2022-08-05T23:46:49.262Z,64.81
2022-08-05T23:49:23.676Z,64.66
2022-08-05T23:52:19.688Z,64.75
2022-08-05T23:54:50.370Z,64.86
2022-08-05T23:57:19.965Z,64.85
